sensor_id;sensor_type;location;lat;lon;timestamp;pressure;altitude;pressure_sealevel;temperature;humidity
19676;BME280;39539;52.202;9.876;2023-05-15T00:01:03;100714.59;;;10.67;100.00
19676;BME280;39539;52.202;9.876;2023-05-15T00:03:29;100708.66;;;10.65;100.00
19676;BME280;39539;52.202;9.876;2023-05-15T00:05:55;100712.31;;;10.64;100.00
19676;BME280;39539;52.202;9.876;2023-05-15T00:08:21;100703.34;;;10.52;100.00
19676;BME280;39539;52.202;9.876;2023-05-15T00:10:48;100706.81;;;10.52;100.00
19676;BME280;39539;52.202;9.876;2023-05-15T00:13:13;100692.94;;;10.37;100.00
19676;BME280;39539;52.202;9.876;2023-05-15T00:15:38;100679.66;;;10.30;100.00
19676;BME280;39539;52.202;9.876;2023-05-15T00:18:04;100695.38;;;10.32;100.00
19676;BME280;39539;52.202;9.876;2023-05-15T00:20:29;100695.78;;;10.22;100.00
19676;BME280;39539;52.202;9.876;2023-05-15T00:22:55;100675.53;;;10.08;100.00
19676;BME280;39539;52.202;9.876;2023-05-15T00:25:21;100689.00;;;10.13;100.00
19676;BME280;39539;52.202;9.876;2023-05-15T00:27:47;100683.91;;;10.11;100.00
19676;BME280;39539;52.202;9.876;2023-05-15T00:30:14;100688.81;;;10.08;100.00
19676;BME280;39539;52.202;9.876;2023-05-15T00:32:40;100689.22;;;10.05;100.00
19676;BME280;39539;52.202;9.876;2023-05-15T00:35:05;100687.97;;;10.01;100.00
19676;BME280;39539;52.202;9.876;2023-05-15T00:37:31;100695.75;;;10.02;100.00
19676;BME280;39539;52.202;9.876;2023-05-15T00:39:56;100686.34;;;10.00;100.00
19676;BME280;39539;52.202;9.876;2023-05-15T00:42:22;100690.41;;;9.96;100.00
19676;BME280;39539;52.202;9.876;2023-05-15T00:44:48;100686.75;;;9.90;100.00
19676;BME280;39539;52.202;9.876;2023-05-15T00:47:15;100681.81;;;9.87;100.00
19676;BME280;39539;52.202;9.876;2023-05-15T00:49:41;100668.16;;;9.83;100.00
19676;BME280;39539;52.202;9.876;2023-05-15T00:52:07;100658.56;;;9.82;100.00
19676;BME280;39539;52.202;9.876;2023-05-15T00:54:33;100675.75;;;10.00;100.00
19676;BME280;39539;52.202;9.876;2023-05-15T00:56:59;100683.50;;;10.08;100.00
19676;BME280;39539;52.202;9.876;2023-05-15T00:59:27;100684.13;;;10.17;100.00
19676;BME280;39539;52.202;9.876;2023-05-15T01:01:54;100683.50;;;10.21;100.00
19676;BME280;39539;52.202;9.876;2023-05-15T01:04:20;100683.56;;;10.28;100.00
19676;BME280;39539;52.202;9.876;2023-05-15T01:06:45;100681.69;;;10.28;100.00
19676;BME280;39539;52.202;9.876;2023-05-15T01:09:13;100681.28;;;10.31;100.00
19676;BME280;39539;52.202;9.876;2023-05-15T01:11:41;100679.84;;;10.36;100.00
19676;BME280;39539;52.202;9.876;2023-05-15T01:14:07;100679.06;;;10.42;100.00
19676;BME280;39539;52.202;9.876;2023-05-15T01:16:34;100675.56;;;10.48;100.00
19676;BME280;39539;52.202;9.876;2023-05-15T01:19:00;100672.72;;;10.43;100.00
19676;BME280;39539;52.202;9.876;2023-05-15T01:27:21;100672.72;;;10.43;100.00
19676;BME280;39539;52.202;9.876;2023-05-15T01:32:37;100667.81;;;10.40;100.00
19676;BME280;39539;52.202;9.876;2023-05-15T01:35:14;100662.28;;;10.41;100.00
19676;BME280;39539;52.202;9.876;2023-05-15T01:37:43;100662.69;;;10.38;100.00
19676;BME280;39539;52.202;9.876;2023-05-15T01:40:11;100654.09;;;10.29;100.00
19676;BME280;39539;52.202;9.876;2023-05-15T01:42:41;100655.31;;;10.27;100.00
19676;BME280;39539;52.202;9.876;2023-05-15T01:45:10;100670.44;;;10.33;100.00
19676;BME280;39539;52.202;9.876;2023-05-15T01:47:46;100667.59;;;10.28;100.00
19676;BME280;39539;52.202;9.876;2023-05-15T01:50:16;100657.75;;;10.15;100.00
19676;BME280;39539;52.202;9.876;2023-05-15T01:52:45;100638.16;;;10.03;100.00
19676;BME280;39539;52.202;9.876;2023-05-15T01:55:13;100654.50;;;10.06;100.00
19676;BME280;39539;52.202;9.876;2023-05-15T01:57:41;100655.09;;;10.02;100.00
19676;BME280;39539;52.202;9.876;2023-05-15T02:00:09;100643.03;;;9.93;100.00
19676;BME280;39539;52.202;9.876;2023-05-15T02:02:35;100650.00;;;9.94;100.00
19676;BME280;39539;52.202;9.876;2023-05-15T02:05:01;100656.13;;;9.94;100.00
19676;BME280;39539;52.202;9.876;2023-05-15T02:07:27;100645.47;;;9.87;100.00
19676;BME280;39539;52.202;9.876;2023-05-15T02:09:54;100638.53;;;9.86;100.00
19676;BME280;39539;52.202;9.876;2023-05-15T02:12:20;100646.72;;;9.92;100.00
19676;BME280;39539;52.202;9.876;2023-05-15T02:14:48;100639.38;;;9.94;100.00
19676;BME280;39539;52.202;9.876;2023-05-15T02:17:13;100648.75;;;9.96;100.00
19676;BME280;39539;52.202;9.876;2023-05-15T02:19:39;100638.97;;;9.97;100.00
19676;BME280;39539;52.202;9.876;2023-05-15T02:22:05;100637.13;;;10.04;100.00
19676;BME280;39539;52.202;9.876;2023-05-15T02:24:30;100629.16;;;10.04;100.00
19676;BME280;39539;52.202;9.876;2023-05-15T02:30:19;100638.34;;;10.15;100.00
19676;BME280;39539;52.202;9.876;2023-05-15T02:32:21;100635.69;;;10.15;100.00
19676;BME280;39539;52.202;9.876;2023-05-15T02:37:31;100637.94;;;10.11;100.00
19676;BME280;39539;52.202;9.876;2023-05-15T02:40:00;100638.16;;;10.03;100.00
19676;BME280;39539;52.202;9.876;2023-05-15T02:42:31;100634.47;;;10.04;100.00
19676;BME280;39539;52.202;9.876;2023-05-15T02:44:57;100611.78;;;9.95;100.00
19676;BME280;39539;52.202;9.876;2023-05-15T02:47:22;100632.22;;;10.01;100.00
19676;BME280;39539;52.202;9.876;2023-05-15T02:49:49;100618.13;;;9.87;100.00
19676;BME280;39539;52.202;9.876;2023-05-15T02:52:14;100623.03;;;9.97;100.00
19676;BME280;39539;52.202;9.876;2023-05-15T02:54:40;100620.56;;;9.95;100.00
19676;BME280;39539;52.202;9.876;2023-05-15T02:57:05;100623.22;;;9.95;100.00
19676;BME280;39539;52.202;9.876;2023-05-15T02:59:32;100622.19;;;9.89;100.00
19676;BME280;39539;52.202;9.876;2023-05-15T03:01:57;100626.31;;;9.85;100.00
19676;BME280;39539;52.202;9.876;2023-05-15T03:04:23;100628.31;;;9.90;100.00
19676;BME280;39539;52.202;9.876;2023-05-15T03:06:48;100619.53;;;9.89;100.00
19676;BME280;39539;52.202;9.876;2023-05-15T03:09:14;100621.38;;;9.96;100.00
19676;BME280;39539;52.202;9.876;2023-05-15T03:11:40;100626.09;;;9.94;100.00
19676;BME280;39539;52.202;9.876;2023-05-15T03:14:06;100620.78;;;9.94;100.00
19676;BME280;39539;52.202;9.876;2023-05-15T03:16:31;100610.75;;;9.96;100.00
19676;BME280;39539;52.202;9.876;2023-05-15T03:18:57;100595.66;;;9.89;100.00
19676;BME280;39539;52.202;9.876;2023-05-15T03:21:22;100607.91;;;10.04;100.00
19676;BME280;39539;52.202;9.876;2023-05-15T03:23:47;100603.81;;;10.01;100.00
19676;BME280;39539;52.202;9.876;2023-05-15T03:26:13;100580.97;;;9.94;100.00
19676;BME280;39539;52.202;9.876;2023-05-15T03:28:41;100598.94;;;10.05;100.00
19676;BME280;39539;52.202;9.876;2023-05-15T03:31:07;100612.81;;;10.07;100.00
19676;BME280;39539;52.202;9.876;2023-05-15T03:33:33;100597.06;;;10.12;100.00
19676;BME280;39539;52.202;9.876;2023-05-15T03:35:58;100590.72;;;10.13;100.00
19676;BME280;39539;52.202;9.876;2023-05-15T03:38:24;100571.56;;;10.11;100.00
19676;BME280;39539;52.202;9.876;2023-05-15T03:40:49;100602.00;;;10.28;100.00
19676;BME280;39539;52.202;9.876;2023-05-15T03:43:14;100601.59;;;10.31;100.00
19676;BME280;39539;52.202;9.876;2023-05-15T03:45:40;100597.72;;;10.34;100.00
19676;BME280;39539;52.202;9.876;2023-05-15T03:48:05;100600.97;;;10.43;100.00
19676;BME280;39539;52.202;9.876;2023-05-15T03:50:31;100606.25;;;10.49;100.00
19676;BME280;39539;52.202;9.876;2023-05-15T03:52:56;100599.94;;;10.50;100.00
19676;BME280;39539;52.202;9.876;2023-05-15T03:55:21;100583.16;;;10.50;100.00
19676;BME280;39539;52.202;9.876;2023-05-15T03:57:47;100591.50;;;10.60;100.00
19676;BME280;39539;52.202;9.876;2023-05-15T04:00:12;100591.91;;;10.70;100.00
19676;BME280;39539;52.202;9.876;2023-05-15T04:02:40;100593.91;;;10.75;100.00
19676;BME280;39539;52.202;9.876;2023-05-15T04:05:07;100594.53;;;10.77;100.00
19676;BME280;39539;52.202;9.876;2023-05-15T04:07:33;100595.91;;;10.86;100.00
19676;BME280;39539;52.202;9.876;2023-05-15T04:09:59;100594.25;;;10.92;100.00
19676;BME280;39539;52.202;9.876;2023-05-15T04:12:27;100600.16;;;11.00;100.00
19676;BME280;39539;52.202;9.876;2023-05-15T04:15:20;100600.31;;;11.12;100.00
19676;BME280;39539;52.202;9.876;2023-05-15T04:17:48;100592.13;;;11.14;100.00
19676;BME280;39539;52.202;9.876;2023-05-15T04:20:15;100590.47;;;11.19;100.00
19676;BME280;39539;52.202;9.876;2023-05-15T04:22:41;100587.56;;;11.28;100.00
19676;BME280;39539;52.202;9.876;2023-05-15T04:25:07;100595.06;;;11.37;100.00
19676;BME280;39539;52.202;9.876;2023-05-15T04:27:33;100591.94;;;11.47;100.00
19676;BME280;39539;52.202;9.876;2023-05-15T04:29:59;100587.34;;;11.61;100.00
19676;BME280;39539;52.202;9.876;2023-05-15T04:32:25;100590.56;;;11.69;100.00
19676;BME280;39539;52.202;9.876;2023-05-15T04:34:51;100597.03;;;11.87;100.00
19676;BME280;39539;52.202;9.876;2023-05-15T04:37:17;100591.59;;;12.00;100.00
19676;BME280;39539;52.202;9.876;2023-05-15T04:39:42;100597.56;;;12.21;100.00
19676;BME280;39539;52.202;9.876;2023-05-15T04:42:07;100586.47;;;12.42;100.00
19676;BME280;39539;52.202;9.876;2023-05-15T04:44:33;100587.66;;;12.65;100.00
19676;BME280;39539;52.202;9.876;2023-05-15T04:46:58;100581.13;;;12.79;100.00
19676;BME280;39539;52.202;9.876;2023-05-15T04:49:23;100568.09;;;12.89;100.00
19676;BME280;39539;52.202;9.876;2023-05-15T04:51:49;100572.44;;;13.02;100.00
19676;BME280;39539;52.202;9.876;2023-05-15T04:54:14;100570.09;;;13.24;100.00
19676;BME280;39539;52.202;9.876;2023-05-15T04:56:39;100553.50;;;13.22;100.00
19676;BME280;39539;52.202;9.876;2023-05-15T04:59:05;100570.06;;;13.42;100.00
19676;BME280;39539;52.202;9.876;2023-05-15T05:01:30;100565.56;;;13.55;100.00
19676;BME280;39539;52.202;9.876;2023-05-15T05:03:56;100568.19;;;13.73;100.00
19676;BME280;39539;52.202;9.876;2023-05-15T05:06:22;100563.53;;;13.92;100.00
19676;BME280;39539;52.202;9.876;2023-05-15T05:08:47;100561.78;;;14.09;100.00
19676;BME280;39539;52.202;9.876;2023-05-15T05:11:13;100544.00;;;14.15;100.00
19676;BME280;39539;52.202;9.876;2023-05-15T05:13:38;100545.16;;;14.43;100.00
19676;BME280;39539;52.202;9.876;2023-05-15T05:16:06;100553.72;;;14.68;100.00
19676;BME280;39539;52.202;9.876;2023-05-15T05:18:31;100534.28;;;14.73;99.83
19676;BME280;39539;52.202;9.876;2023-05-15T05:21:00;100551.44;;;15.00;99.82
19676;BME280;39539;52.202;9.876;2023-05-15T05:23:28;100549.81;;;15.16;100.00
19676;BME280;39539;52.202;9.876;2023-05-15T05:25:53;100533.78;;;15.33;98.90
19676;BME280;39539;52.202;9.876;2023-05-15T05:28:19;100515.16;;;15.55;96.76
19676;BME280;39539;52.202;9.876;2023-05-15T05:30:45;100534.81;;;15.78;92.41
19676;BME280;39539;52.202;9.876;2023-05-15T05:33:12;100537.81;;;15.98;90.20
19676;BME280;39539;52.202;9.876;2023-05-15T05:35:40;100528.78;;;16.04;88.73
19676;BME280;39539;52.202;9.876;2023-05-15T05:38:06;100514.81;;;16.02;87.41
19676;BME280;39539;52.202;9.876;2023-05-15T05:40:40;100526.31;;;16.20;88.97
19676;BME280;39539;52.202;9.876;2023-05-15T05:43:06;100515.53;;;16.14;89.63
19676;BME280;39539;52.202;9.876;2023-05-15T05:45:31;100522.22;;;16.34;90.61
19676;BME280;39539;52.202;9.876;2023-05-15T05:47:57;100524.78;;;16.46;89.93
19676;BME280;39539;52.202;9.876;2023-05-15T05:50:22;100522.06;;;16.85;88.07
19676;BME280;39539;52.202;9.876;2023-05-15T05:52:49;100525.44;;;17.61;83.11
19676;BME280;39539;52.202;9.876;2023-05-15T05:55:16;100513.03;;;17.87;78.54
19676;BME280;39539;52.202;9.876;2023-05-15T05:57:41;100509.81;;;17.90;77.48
19676;BME280;39539;52.202;9.876;2023-05-15T06:00:08;100510.81;;;18.95;74.41
19676;BME280;39539;52.202;9.876;2023-05-15T06:02:39;100500.31;;;20.01;69.39
19676;BME280;39539;52.202;9.876;2023-05-15T06:05:05;100489.38;;;20.96;64.34
19676;BME280;39539;52.202;9.876;2023-05-15T06:07:31;100466.69;;;22.76;61.25
19676;BME280;39539;52.202;9.876;2023-05-15T06:09:58;100457.81;;;24.79;54.56
19676;BME280;39539;52.202;9.876;2023-05-15T06:12:29;100442.84;;;26.90;49.67
19676;BME280;39539;52.202;9.876;2023-05-15T06:14:56;100411.63;;;28.95;44.85
19676;BME280;39539;52.202;9.876;2023-05-15T06:17:31;100396.19;;;30.74;41.91
19676;BME280;39539;52.202;9.876;2023-05-15T06:19:56;100382.25;;;32.06;39.19
19676;BME280;39539;52.202;9.876;2023-05-15T06:22:22;100368.41;;;33.23;36.80
19676;BME280;39539;52.202;9.876;2023-05-15T06:24:47;100335.81;;;33.51;36.22
19676;BME280;39539;52.202;9.876;2023-05-15T06:27:13;100330.00;;;33.83;35.93
19676;BME280;39539;52.202;9.876;2023-05-15T06:29:40;100333.03;;;34.69;35.13
19676;BME280;39539;52.202;9.876;2023-05-15T06:32:05;100331.22;;;35.31;33.97
19676;BME280;39539;52.202;9.876;2023-05-15T06:34:32;100331.28;;;35.39;34.67
19676;BME280;39539;52.202;9.876;2023-05-15T06:36:57;100322.19;;;36.04;32.87
19676;BME280;39539;52.202;9.876;2023-05-15T06:39:23;100329.97;;;36.79;33.03
19676;BME280;39539;52.202;9.876;2023-05-15T06:41:48;100314.53;;;36.99;31.81
19676;BME280;39539;52.202;9.876;2023-05-15T06:44:14;100314.50;;;37.42;31.71
19676;BME280;39539;52.202;9.876;2023-05-15T06:46:39;100324.75;;;37.88;31.03
19676;BME280;39539;52.202;9.876;2023-05-15T06:49:05;100321.53;;;38.08;30.94
19676;BME280;39539;52.202;9.876;2023-05-15T06:51:30;100315.09;;;38.25;30.76
19676;BME280;39539;52.202;9.876;2023-05-15T06:53:57;100313.16;;;38.81;30.73
19676;BME280;39539;52.202;9.876;2023-05-15T06:56:23;100313.91;;;38.89;29.18
19676;BME280;39539;52.202;9.876;2023-05-15T06:58:48;100308.22;;;37.10;31.06
19676;BME280;39539;52.202;9.876;2023-05-15T07:01:14;100297.56;;;34.74;33.00
19676;BME280;39539;52.202;9.876;2023-05-15T07:03:39;100285.16;;;32.02;35.47
19676;BME280;39539;52.202;9.876;2023-05-15T07:06:07;100300.84;;;30.27;37.14
19676;BME280;39539;52.202;9.876;2023-05-15T07:08:32;100308.34;;;28.58;40.71
19676;BME280;39539;52.202;9.876;2023-05-15T07:10:59;100295.13;;;27.17;42.45
19676;BME280;39539;52.202;9.876;2023-05-15T07:13:25;100329.09;;;26.47;44.32
19676;BME280;39539;52.202;9.876;2023-05-15T07:15:52;100335.13;;;25.74;45.46
19676;BME280;39539;52.202;9.876;2023-05-15T07:18:17;100338.28;;;24.96;46.63
19676;BME280;39539;52.202;9.876;2023-05-15T07:20:43;100346.38;;;24.42;48.10
19676;BME280;39539;52.202;9.876;2023-05-15T07:23:08;100351.03;;;23.92;49.89
19676;BME280;39539;52.202;9.876;2023-05-15T07:25:34;100356.84;;;23.58;52.46
19676;BME280;39539;52.202;9.876;2023-05-15T07:27:59;100363.59;;;23.60;51.10
19676;BME280;39539;52.202;9.876;2023-05-15T07:30:25;100362.00;;;23.59;52.75
19676;BME280;39539;52.202;9.876;2023-05-15T07:32:50;100351.06;;;23.64;50.90
19676;BME280;39539;52.202;9.876;2023-05-15T07:35:16;100367.09;;;23.61;51.61
19676;BME280;39539;52.202;9.876;2023-05-15T07:37:41;100370.34;;;23.90;52.26
19676;BME280;39539;52.202;9.876;2023-05-15T07:40:07;100357.75;;;24.08;52.58
19676;BME280;39539;52.202;9.876;2023-05-15T07:42:32;100352.41;;;24.76;50.09
19676;BME280;39539;52.202;9.876;2023-05-15T07:44:58;100354.50;;;25.81;48.64
19676;BME280;39539;52.202;9.876;2023-05-15T07:47:23;100347.78;;;27.56;46.69
19676;BME280;39539;52.202;9.876;2023-05-15T07:49:49;100336.97;;;28.40;44.83
19676;BME280;39539;52.202;9.876;2023-05-15T07:52:14;100323.25;;;28.94;43.27
19676;BME280;39539;52.202;9.876;2023-05-15T07:54:40;100320.38;;;28.78;43.58
19676;BME280;39539;52.202;9.876;2023-05-15T07:57:08;100314.88;;;28.78;43.43
19676;BME280;39539;52.202;9.876;2023-05-15T07:59:34;100306.06;;;29.55;40.95
19676;BME280;39539;52.202;9.876;2023-05-15T08:02:00;100302.22;;;30.49;40.96
19676;BME280;39539;52.202;9.876;2023-05-15T08:04:25;100300.34;;;31.29;40.18
19676;BME280;39539;52.202;9.876;2023-05-15T08:06:51;100306.88;;;32.69;37.59
19676;BME280;39539;52.202;9.876;2023-05-15T08:09:16;100279.88;;;34.41;36.16
19676;BME280;39539;52.202;9.876;2023-05-15T08:11:42;100286.91;;;35.87;34.66
19676;BME280;39539;52.202;9.876;2023-05-15T08:14:08;100267.03;;;36.86;32.78
19676;BME280;39539;52.202;9.876;2023-05-15T08:16:33;100261.50;;;37.12;32.50
19676;BME280;39539;52.202;9.876;2023-05-15T08:18:59;100240.06;;;37.30;32.68
19676;BME280;39539;52.202;9.876;2023-05-15T08:21:31;100257.91;;;36.68;32.87
19676;BME280;39539;52.202;9.876;2023-05-15T08:23:58;100247.97;;;36.46;32.29
19676;BME280;39539;52.202;9.876;2023-05-15T08:26:23;100250.81;;;36.78;31.95
19676;BME280;39539;52.202;9.876;2023-05-15T08:28:49;100243.66;;;36.91;31.38
19676;BME280;39539;52.202;9.876;2023-05-15T08:31:15;100246.38;;;37.38;31.80
19676;BME280;39539;52.202;9.876;2023-05-15T08:33:40;100240.66;;;38.02;31.95
19676;BME280;39539;52.202;9.876;2023-05-15T08:36:07;100243.94;;;38.46;29.90
19676;BME280;39539;52.202;9.876;2023-05-15T08:38:33;100245.44;;;37.91;30.35
19676;BME280;39539;52.202;9.876;2023-05-15T08:41:05;100238.78;;;38.48;30.49
19676;BME280;39539;52.202;9.876;2023-05-15T08:43:34;100232.47;;;37.59;30.67
19676;BME280;39539;52.202;9.876;2023-05-15T08:46:01;100233.78;;;37.04;31.38
19676;BME280;39539;52.202;9.876;2023-05-15T08:48:28;100229.44;;;35.48;31.84
19676;BME280;39539;52.202;9.876;2023-05-15T08:50:55;100221.75;;;33.93;34.78
19676;BME280;39539;52.202;9.876;2023-05-15T08:53:22;100242.47;;;32.74;36.53
19676;BME280;39539;52.202;9.876;2023-05-15T08:55:48;100240.41;;;32.67;36.98
19676;BME280;39539;52.202;9.876;2023-05-15T08:58:14;100250.78;;;33.00;36.14
19676;BME280;39539;52.202;9.876;2023-05-15T09:00:41;100243.78;;;33.06;36.23
19676;BME280;39539;52.202;9.876;2023-05-15T09:03:12;100243.22;;;33.77;36.30
19676;BME280;39539;52.202;9.876;2023-05-15T09:05:38;100255.16;;;35.56;32.86
19676;BME280;39539;52.202;9.876;2023-05-15T09:08:05;100245.66;;;36.69;32.39
19676;BME280;39539;52.202;9.876;2023-05-15T09:10:31;100241.53;;;37.74;32.18
19676;BME280;39539;52.202;9.876;2023-05-15T09:12:58;100225.22;;;38.57;30.89
19676;BME280;39539;52.202;9.876;2023-05-15T09:15:26;100208.75;;;38.77;29.76
19676;BME280;39539;52.202;9.876;2023-05-15T09:17:51;100216.28;;;39.21;30.51
19676;BME280;39539;52.202;9.876;2023-05-15T09:20:29;100213.88;;;38.82;30.04
19676;BME280;39539;52.202;9.876;2023-05-15T09:22:56;100208.13;;;37.99;29.94
19676;BME280;39539;52.202;9.876;2023-05-15T09:25:37;100219.53;;;37.10;30.89
19676;BME280;39539;52.202;9.876;2023-05-15T09:28:04;100225.81;;;36.46;31.24
19676;BME280;39539;52.202;9.876;2023-05-15T09:30:29;100206.84;;;35.31;32.67
19676;BME280;39539;52.202;9.876;2023-05-15T09:32:58;100229.56;;;34.59;34.35
19676;BME280;39539;52.202;9.876;2023-05-15T09:35:50;100233.69;;;34.01;36.26
19676;BME280;39539;52.202;9.876;2023-05-15T09:38:17;100240.75;;;33.98;33.90
19676;BME280;39539;52.202;9.876;2023-05-15T09:40:43;100249.47;;;34.79;33.61
19676;BME280;39539;52.202;9.876;2023-05-15T09:43:12;100239.50;;;35.12;34.15
19676;BME280;39539;52.202;9.876;2023-05-15T09:45:37;100245.13;;;35.29;34.12
19676;BME280;39539;52.202;9.876;2023-05-15T09:48:04;100242.41;;;35.37;35.23
19676;BME280;39539;52.202;9.876;2023-05-15T09:50:37;100252.13;;;35.79;34.06
19676;BME280;39539;52.202;9.876;2023-05-15T09:53:04;100240.91;;;36.77;31.65
19676;BME280;39539;52.202;9.876;2023-05-15T09:55:33;100227.84;;;36.81;31.76
19676;BME280;39539;52.202;9.876;2023-05-15T09:58:11;100231.75;;;36.37;33.94
19676;BME280;39539;52.202;9.876;2023-05-15T10:00:38;100227.28;;;35.93;33.50
19676;BME280;39539;52.202;9.876;2023-05-15T10:03:07;100228.91;;;36.01;33.07
19676;BME280;39539;52.202;9.876;2023-05-15T10:05:33;100223.59;;;35.60;33.10
19676;BME280;39539;52.202;9.876;2023-05-15T10:08:00;100221.88;;;35.38;34.98
19676;BME280;39539;52.202;9.876;2023-05-15T10:10:27;100232.81;;;36.04;34.75
19676;BME280;39539;52.202;9.876;2023-05-15T10:12:54;100221.72;;;35.86;34.04
19676;BME280;39539;52.202;9.876;2023-05-15T10:15:21;100233.47;;;35.61;33.02
19676;BME280;39539;52.202;9.876;2023-05-15T10:17:48;100214.56;;;34.56;35.40
19676;BME280;39539;52.202;9.876;2023-05-15T10:20:18;100224.03;;;34.55;35.52
19676;BME280;39539;52.202;9.876;2023-05-15T10:22:50;100230.78;;;34.24;36.81
19676;BME280;39539;52.202;9.876;2023-05-15T10:28:01;100233.66;;;32.64;37.19
19676;BME280;39539;52.202;9.876;2023-05-15T10:30:27;100234.72;;;31.79;39.58
19676;BME280;39539;52.202;9.876;2023-05-15T10:32:54;100240.38;;;31.15;40.22
19676;BME280;39539;52.202;9.876;2023-05-15T10:35:22;100235.00;;;30.27;41.69
19676;BME280;39539;52.202;9.876;2023-05-15T10:37:48;100240.22;;;29.64;41.78
19676;BME280;39539;52.202;9.876;2023-05-15T10:40:16;100238.56;;;29.22;44.86
19676;BME280;39539;52.202;9.876;2023-05-15T10:42:44;100245.91;;;28.73;45.69
19676;BME280;39539;52.202;9.876;2023-05-15T10:45:10;100235.44;;;28.62;43.89
19676;BME280;39539;52.202;9.876;2023-05-15T10:47:37;100222.75;;;28.25;44.53
19676;BME280;39539;52.202;9.876;2023-05-15T10:50:04;100233.38;;;28.05;45.73
19676;BME280;39539;52.202;9.876;2023-05-15T10:52:35;100239.28;;;27.95;46.03
19676;BME280;39539;52.202;9.876;2023-05-15T10:55:01;100234.06;;;27.81;46.38
19676;BME280;39539;52.202;9.876;2023-05-15T10:57:30;100223.31;;;27.76;47.92
19676;BME280;39539;52.202;9.876;2023-05-15T10:59:56;100231.09;;;27.65;47.51
19676;BME280;39539;52.202;9.876;2023-05-15T11:02:25;100225.28;;;27.46;47.18
19676;BME280;39539;52.202;9.876;2023-05-15T11:04:58;100222.88;;;27.23;49.78
19676;BME280;39539;52.202;9.876;2023-05-15T11:07:24;100217.84;;;26.96;48.03
19676;BME280;39539;52.202;9.876;2023-05-15T11:09:51;100212.34;;;27.04;49.22
19676;BME280;39539;52.202;9.876;2023-05-15T11:12:17;100208.44;;;26.84;47.64
19676;BME280;39539;52.202;9.876;2023-05-15T11:17:25;100221.22;;;26.54;50.53
19676;BME280;39539;52.202;9.876;2023-05-15T11:22:27;100201.84;;;26.38;50.20
19676;BME280;39539;52.202;9.876;2023-05-15T11:25:07;100199.75;;;26.27;50.41
19676;BME280;39539;52.202;9.876;2023-05-15T11:27:44;100203.09;;;26.32;48.89
19676;BME280;39539;52.202;9.876;2023-05-15T11:30:17;100190.34;;;25.98;50.64
19676;BME280;39539;52.202;9.876;2023-05-15T11:35:21;100193.88;;;26.16;48.70
19676;BME280;39539;52.202;9.876;2023-05-15T11:37:51;100182.31;;;26.19;48.40
19676;BME280;39539;52.202;9.876;2023-05-15T11:40:54;100180.38;;;26.28;48.44
19676;BME280;39539;52.202;9.876;2023-05-15T11:43:28;100179.03;;;26.43;48.26
19676;BME280;39539;52.202;9.876;2023-05-15T11:46:03;100179.22;;;26.55;49.12
19676;BME280;39539;52.202;9.876;2023-05-15T11:48:33;100177.13;;;26.91;47.81
19676;BME280;39539;52.202;9.876;2023-05-15T11:51:03;100175.28;;;27.33;47.55
19676;BME280;39539;52.202;9.876;2023-05-15T11:53:30;100170.69;;;27.88;46.10
19676;BME280;39539;52.202;9.876;2023-05-15T11:55:56;100171.16;;;28.23;46.74
19676;BME280;39539;52.202;9.876;2023-05-15T11:58:26;100164.81;;;28.31;43.11
19676;BME280;39539;52.202;9.876;2023-05-15T12:00:52;100157.97;;;27.92;43.32
19676;BME280;39539;52.202;9.876;2023-05-15T12:03:25;100150.50;;;27.17;44.42
19676;BME280;39539;52.202;9.876;2023-05-15T12:05:52;100143.28;;;26.53;44.51
19676;BME280;39539;52.202;9.876;2023-05-15T12:08:18;100139.97;;;26.30;44.28
19676;BME280;39539;52.202;9.876;2023-05-15T12:10:45;100145.94;;;26.15;45.45
19676;BME280;39539;52.202;9.876;2023-05-15T12:13:12;100146.56;;;26.20;46.90
19676;BME280;39539;52.202;9.876;2023-05-15T12:15:40;100150.66;;;26.53;46.72
19676;BME280;39539;52.202;9.876;2023-05-15T12:18:06;100155.53;;;26.77;46.60
19676;BME280;39539;52.202;9.876;2023-05-15T12:20:34;100156.13;;;26.82;44.32
19676;BME280;39539;52.202;9.876;2023-05-15T12:23:01;100147.59;;;26.46;46.59
19676;BME280;39539;52.202;9.876;2023-05-15T12:25:28;100150.38;;;26.28;46.62
19676;BME280;39539;52.202;9.876;2023-05-15T12:27:55;100139.38;;;25.98;48.35
19676;BME280;39539;52.202;9.876;2023-05-15T12:30:21;100143.09;;;25.76;47.94
19676;BME280;39539;52.202;9.876;2023-05-15T12:32:47;100145.66;;;25.56;50.83
19676;BME280;39539;52.202;9.876;2023-05-15T12:35:14;100145.19;;;25.53;49.78
19676;BME280;39539;52.202;9.876;2023-05-15T12:37:41;100142.28;;;25.24;48.32
19676;BME280;39539;52.202;9.876;2023-05-15T12:40:07;100148.44;;;25.07;49.13
19676;BME280;39539;52.202;9.876;2023-05-15T12:42:43;100150.03;;;24.99;48.20
19676;BME280;39539;52.202;9.876;2023-05-15T12:45:14;100147.56;;;24.72;48.90
19676;BME280;39539;52.202;9.876;2023-05-15T12:47:40;100142.13;;;24.72;46.42
19676;BME280;39539;52.202;9.876;2023-05-15T12:50:14;100141.28;;;24.40;47.59
19676;BME280;39539;52.202;9.876;2023-05-15T12:55:17;100145.88;;;24.53;48.42
19676;BME280;39539;52.202;9.876;2023-05-15T12:57:43;100151.41;;;24.79;48.76
19676;BME280;39539;52.202;9.876;2023-05-15T13:00:09;100151.50;;;25.05;49.52
19676;BME280;39539;52.202;9.876;2023-05-15T13:02:35;100131.66;;;25.14;48.17
19676;BME280;39539;52.202;9.876;2023-05-15T13:05:04;100124.50;;;25.26;49.58
19676;BME280;39539;52.202;9.876;2023-05-15T13:07:30;100139.56;;;25.50;48.39
19676;BME280;39539;52.202;9.876;2023-05-15T13:10:04;100146.94;;;25.58;49.45
19676;BME280;39539;52.202;9.876;2023-05-15T13:12:45;100134.44;;;25.48;48.70
19676;BME280;39539;52.202;9.876;2023-05-15T13:18:06;100144.53;;;25.91;46.74